Time;durP1;ratioP1;P1;durP2;ratioP2;P2;SDS_P1;SDS_P2;PMS_P1;PMS_P2;Temp;Humidity;BMP_temperature;BMP_pressure;BME280_temperature;BME280_humidity;BME280_pressure;Samples;Min_cycle;Max_cycle;Signal;HPM_P1;HPM_P2
2022/09/04 00:00:18;;;;;;;4.70;3.73;;;-31.00;99.90;;;;;;5096808;28;20191;-70
2022/09/04 00:02:43;;;;;;;4.97;3.90;;;-23.00;99.90;;;;;;5095935;28;20258;-75
2022/09/04 00:05:18;;;;;;;4.77;4.37;;;-27.80;99.90;;;;;;5096833;28;20201;-71
2022/09/04 00:08:03;;;;;;;5.10;4.17;;;-31.20;99.90;;;;;;5097102;28;20180;-72
2022/09/04 00:10:29;;;;;;;4.63;4.20;;;-30.60;99.90;;;;;;5096285;28;20167;-71
2022/09/04 00:13:03;;;;;;;6.50;4.63;;;-34.00;99.90;;;;;;5096056;28;20225;-71
2022/09/04 00:15:35;;;;;;;4.77;4.13;;;-30.90;99.90;;;;;;5096506;28;20190;-73
2022/09/04 00:18:35;;;;;;;4.63;4.00;;;-24.60;99.90;;;;;;5096389;28;20191;-71
2022/09/04 00:21:01;;;;;;;13.80;3.90;;;-25.60;99.90;;;;;;5096367;28;20159;-73
2022/09/04 00:23:51;;;;;;;6.13;4.13;;;-28.40;99.90;;;;;;5095786;28;20499;-72
2022/09/04 00:26:43;;;;;;;4.53;4.17;;;-28.10;99.90;;;;;;5095878;28;20220;-72
2022/09/04 00:29:12;;;;;;;6.77;3.63;;;-32.50;99.90;;;;;;5094982;28;20191;-71
2022/09/04 00:31:48;;;;;;;5.57;4.30;;;-31.50;99.90;;;;;;5096030;28;20206;-71
2022/09/04 00:34:27;;;;;;;4.57;4.27;;;-28.40;99.90;;;;;;5095918;28;20227;-71
2022/09/04 00:37:00;;;;;;;4.83;4.17;;;-27.40;99.90;;;;;;5095788;28;20283;-73
2022/09/04 00:39:37;;;;;;;3.90;3.70;;;-28.20;99.90;;;;;;5095739;28;20186;-72
2022/09/04 00:42:03;;;;;;;4.23;3.93;;;-26.60;99.90;;;;;;5095848;28;20253;-75
2022/09/04 00:44:44;;;;;;;3.90;3.50;;;-23.50;99.90;;;;;;5095927;28;20190;-75
2022/09/04 00:47:19;;;;;;;5.67;4.53;;;-23.50;99.90;;;;;;5095853;28;20171;-72
2022/09/04 00:50:21;;;;;;;3.67;3.37;;;-26.30;99.90;;;;;;5095843;28;20189;-71
2022/09/04 00:53:08;;;;;;;5.60;4.43;;;-28.80;99.90;;;;;;5095620;28;20162;-73
2022/09/04 00:55:55;;;;;;;3.57;3.33;;;-25.50;99.90;;;;;;5095730;28;20201;-71
2022/09/04 00:58:45;;;;;;;4.97;3.93;;;-25.10;99.90;;;;;;5095482;28;20666;-71
2022/09/04 01:01:20;;;;;;;4.73;4.27;;;-39.00;99.90;;;;;;5095526;28;20217;-72
2022/09/04 01:04:10;;;;;;;4.47;4.07;;;-37.10;99.90;;;;;;5095768;28;20194;-72
2022/09/04 01:07:00;;;;;;;5.20;4.70;;;-33.30;99.90;;;;;;5095323;28;20266;-72
2022/09/04 01:09:56;;;;;;;5.53;5.03;;;-29.60;99.90;;;;;;5094488;28;20170;-72
2022/09/04 01:12:54;;;;;;;5.23;4.73;;;-20.90;99.90;;;;;;5094433;28;20224;-71
2022/09/04 01:15:27;;;;;;;4.00;3.80;;;-25.50;99.90;;;;;;5090899;28;20210;-72
2022/09/04 01:18:08;;;;;;;5.20;4.53;;;-35.50;99.90;;;;;;5095523;28;20174;-72
2022/09/04 01:20:53;;;;;;;4.50;4.17;;;-32.10;99.90;;;;;;5095570;28;20167;-72
2022/09/04 01:23:34;;;;;;;5.10;4.70;;;-33.20;99.90;;;;;;5095397;28;20600;-71
2022/09/04 01:26:31;;;;;;;4.53;4.13;;;-27.30;99.90;;;;;;5094471;28;20169;-72
2022/09/04 01:29:34;;;;;;;5.07;4.67;;;-25.80;99.90;;;;;;5094185;28;20208;-73
2022/09/04 01:32:25;;;;;;;5.77;4.83;;;-25.60;99.90;;;;;;5095407;28;20211;-73
2022/09/04 01:35:01;;;;;;;5.00;4.60;;;-26.20;99.90;;;;;;5095435;28;20191;-72
2022/09/04 01:37:29;;;;;;;3.93;3.70;;;-24.20;99.90;;;;;;5097976;28;20505;-72
2022/09/04 01:40:18;;;;;;;4.90;4.10;;;-31.70;99.90;;;;;;5098164;28;20213;-72
2022/09/04 01:42:49;;;;;;;5.90;4.20;;;-32.30;99.90;;;;;;5099070;28;20213;-70
2022/09/04 01:45:28;;;;;;;4.37;4.07;;;-27.70;99.90;;;;;;5098101;28;20223;-72
2022/09/04 01:48:01;;;;;;;6.20;4.10;;;-28.90;99.90;;;;;;5099018;28;20578;-72
2022/09/04 01:50:31;;;;;;;5.30;4.60;;;-27.70;99.90;;;;;;5097421;28;20251;-71
2022/09/04 01:53:06;;;;;;;10.37;5.70;;;-24.90;99.90;;;;;;5098900;28;20162;-71
2022/09/04 01:55:56;;;;;;;5.60;3.97;;;-25.30;99.90;;;;;;5098835;28;20472;-70
2022/09/04 01:58:24;;;;;;;5.40;4.90;;;-22.80;99.90;;;;;;5098434;28;20175;-71
2022/09/04 02:01:12;;;;;;;3.87;3.37;;;-23.80;99.90;;;;;;5098528;28;20189;-71
2022/09/04 02:04:25;;;;;;;6.50;4.10;;;-25.00;99.90;;;;;;5097264;28;20167;-71
2022/09/04 02:06:59;;;;;;;4.80;4.37;;;-27.30;99.90;;;;;;5076094;28;20191;-71
2022/09/04 02:10:12;;;;;;;3.53;3.33;;;-28.10;99.90;;;;;;5094957;28;20560;-71
2022/09/04 02:12:57;;;;;;;6.10;4.40;;;-27.90;99.90;;;;;;5076247;28;20179;-72
2022/09/04 02:15:34;;;;;;;5.23;4.73;;;-28.60;99.90;;;;;;5096504;28;20217;-71
2022/09/04 02:18:25;;;;;;;5.20;4.80;;;-22.30;99.90;;;;;;5098323;28;20254;-71
2022/09/04 02:21:04;;;;;;;5.57;4.13;;;-31.50;99.90;;;;;;5098226;28;20167;-70
2022/09/04 02:23:44;;;;;;;4.13;3.73;;;-30.90;99.90;;;;;;5098323;28;20621;-71
2022/09/04 02:26:44;;;;;;;4.53;4.03;;;-25.60;99.90;;;;;;5098285;28;20163;-71
2022/09/04 02:29:31;;;;;;;5.63;3.87;;;-31.00;99.90;;;;;;5087637;28;20194;-71
2022/09/04 02:32:06;;;;;;;5.07;4.47;;;-28.80;99.90;;;;;;5098275;28;20170;-72
2022/09/04 02:34:37;;;;;;;5.27;3.83;;;-32.50;99.90;;;;;;5097656;28;20194;-71
2022/09/04 02:37:24;;;;;;;4.40;4.10;;;-29.40;99.90;;;;;;5097084;28;20159;-71
2022/09/04 02:40:34;;;;;;;7.17;4.63;;;-28.90;99.90;;;;;;5097866;28;20558;-72
2022/09/04 02:43:26;;;;;;;4.07;3.73;;;-23.40;99.90;;;;;;5078333;28;20187;-72
2022/09/04 02:46:22;;;;;;;4.23;3.93;;;-25.60;99.90;;;;;;5098057;28;20179;-72
2022/09/04 02:49:07;;;;;;;4.57;4.27;;;-22.50;99.90;;;;;;5097345;28;20254;-71
2022/09/04 02:52:03;;;;;;;5.20;4.73;;;-22.20;99.90;;;;;;5097786;28;20601;-72
2022/09/04 02:54:56;;;;;;;5.30;4.70;;;-22.90;99.90;;;;;;5096405;28;20194;-72
2022/09/04 02:57:55;;;;;;;9.00;5.10;;;-22.70;99.90;;;;;;5096515;28;20163;-71
2022/09/04 03:00:42;;;;;;;5.43;5.03;;;-22.10;99.90;;;;;;5097389;28;20655;-72
2022/09/04 03:03:18;;;;;;;4.10;3.77;;;-20.90;99.90;;;;;;5097332;28;20167;-72
2022/09/04 03:06:13;;;;;;;3.73;3.47;;;-20.80;99.90;;;;;;5096386;28;20484;-72
2022/09/04 03:08:45;;;;;;;3.93;3.63;;;-25.70;99.90;;;;;;5096356;28;20182;-70
2022/09/04 03:11:34;;;;;;;5.90;3.83;;;-28.00;99.90;;;;;;5096173;28;20220;-70
2022/09/04 03:14:09;;;;;;;4.93;4.30;;;-30.10;99.90;;;;;;5096342;28;20195;-78
2022/09/04 03:16:48;;;;;;;4.27;3.97;;;-32.10;99.90;;;;;;5097268;28;20215;-71
2022/09/04 03:19:24;;;;;;;4.77;4.37;;;-28.50;99.90;;;;;;5097361;28;20162;-76
2022/09/04 03:22:00;;;;;;;3.93;3.70;;;-29.30;99.90;;;;;;5097345;28;20176;-72
2022/09/04 03:25:04;;;;;;;6.93;4.87;;;-24.30;99.90;;;;;;5096016;28;20174;-73
2022/09/04 03:27:33;;;;;;;6.43;4.57;;;-29.50;99.90;;;;;;5095931;28;20175;-71
2022/09/04 03:30:11;;;;;;;5.83;5.37;;;-33.00;99.90;;;;;;5096975;28;20531;-71
2022/09/04 03:32:42;;;;;;;3.73;3.37;;;-29.60;99.90;;;;;;5096782;28;20177;-71
2022/09/04 03:35:17;;;;;;;4.77;4.43;;;-26.40;99.90;;;;;;5096810;28;20216;-70
2022/09/04 03:37:52;;;;;;;7.70;3.87;;;-23.70;99.90;;;;;;5096759;28;20558;-71
2022/09/04 03:40:45;;;;;;;4.77;4.37;;;-23.40;99.90;;;;;;5096680;28;20161;-71
2022/09/04 03:43:22;;;;;;;4.57;4.27;;;-27.00;99.90;;;;;;5096975;28;20159;-71
2022/09/04 03:46:16;;;;;;;5.07;4.77;;;-20.50;99.90;;;;;;5096416;28;20200;-71
2022/09/04 03:49:07;;;;;;;5.67;4.77;;;-29.50;99.90;;;;;;5096612;28;20167;-71
2022/09/04 03:52:13;;;;;;;10.27;5.20;;;-33.20;99.90;;;;;;5096441;28;20190;-70
2022/09/04 03:55:02;;;;;;;7.33;5.17;;;-31.90;99.90;;;;;;5085468;28;20210;-72
2022/09/04 03:57:51;;;;;;;4.23;4.03;;;-33.40;99.90;;;;;;5096477;28;20188;-71
2022/09/04 04:00:19;;;;;;;5.70;4.97;;;-29.80;99.90;;;;;;5073394;28;20195;-72
2022/09/04 04:03:42;;;;;;;5.23;4.73;;;-31.10;99.90;;;;;;5096353;28;20171;-71
2022/09/04 04:06:40;;;;;;;5.67;4.97;;;-26.60;99.90;;;;;;5057271;28;20175;-71
2022/09/04 04:09:20;;;;;;;6.23;5.40;;;-25.10;99.90;;;;;;5055608;28;20210;-71
2022/09/04 04:11:46;;;;;;;5.60;4.03;;;-23.40;99.90;;;;;;5091427;28;20220;-72
2022/09/04 04:14:40;;;;;;;5.33;4.83;;;-23.80;99.90;;;;;;5096252;28;20218;-71
2022/09/04 04:17:15;;;;;;;9.83;4.93;;;-24.60;99.90;;;;;;5095913;28;20557;-71
2022/09/04 04:20:01;;;;;;;5.10;4.80;;;-23.50;99.90;;;;;;5096328;28;20170;-71
2022/09/04 04:22:33;;;;;;;4.10;3.80;;;-28.70;99.90;;;;;;5095925;28;20181;-72
2022/09/04 04:25:24;;;;;;;4.47;4.17;;;-28.40;99.90;;;;;;5096216;28;20166;-74
2022/09/04 04:28:15;;;;;;;3.87;3.60;;;-28.90;99.90;;;;;;5095769;28;20576;-72
2022/09/04 04:30:53;;;;;;;4.83;4.43;;;-26.40;99.90;;;;;;5095671;28;20645;-79
2022/09/04 04:33:31;;;;;;;7.20;4.70;;;-26.80;99.90;;;;;;5095001;28;20181;-71
2022/09/04 04:36:16;;;;;;;4.40;4.17;;;-27.50;99.90;;;;;;5095862;28;20277;-70
2022/09/04 04:39:16;;;;;;;6.33;4.20;;;-27.40;99.90;;;;;;5095954;28;20539;-79
2022/09/04 04:42:07;;;;;;;4.63;4.30;;;-23.60;99.90;;;;;;5095873;28;20242;-71
2022/09/04 04:48:14;;;;;;;7.03;4.87;;;-33.80;99.90;;;;;;5095698;28;20231;-73
2022/09/04 04:51:07;;;;;;;4.80;4.50;;;-30.90;99.90;;;;;;5087286;28;20198;-71
2022/09/04 04:54:13;;;;;;;5.17;4.77;;;-27.80;99.90;;;;;;5095846;28;20512;-72
2022/09/04 04:56:49;;;;;;;9.37;4.17;;;-31.30;99.90;;;;;;5095567;28;20177;-71
2022/09/04 04:59:34;;;;;;;5.00;4.70;;;-28.80;99.90;;;;;;5095699;28;20173;-71
2022/09/04 05:02:15;;;;;;;3.90;3.70;;;-31.30;99.90;;;;;;5095591;28;20604;-73
2022/09/04 05:04:48;;;;;;;4.30;4.00;;;-26.70;99.90;;;;;;5095611;28;20163;-71
2022/09/04 05:07:33;;;;;;;4.07;3.77;;;-25.20;99.90;;;;;;5095578;28;20261;-72
2022/09/04 05:10:20;;;;;;;4.97;4.23;;;-28.40;99.90;;;;;;5095708;28;20170;-71
2022/09/04 05:13:10;;;;;;;3.47;3.20;;;-26.60;99.90;;;;;;5097883;28;20175;-71
2022/09/04 05:16:02;;;;;;;3.67;3.47;;;-32.10;99.90;;;;;;5099570;28;20497;-74
2022/09/04 05:18:33;;;;;;;3.97;3.77;;;-23.90;99.90;;;;;;5099488;28;20159;-71
2022/09/04 05:21:15;;;;;;;4.90;4.60;;;-28.80;99.90;;;;;;5098801;28;20182;-70
2022/09/04 05:23:55;;;;;;;3.63;3.40;;;-31.20;99.90;;;;;;5099296;28;20166;-71
2022/09/04 05:26:36;;;;;;;4.33;3.30;;;-37.60;99.90;;;;;;5099516;28;20245;-70
2022/09/04 05:29:19;;;;;;;4.53;4.13;;;-37.10;99.90;;;;;;5098997;28;20171;-71
2022/09/04 05:31:57;;;;;;;4.67;4.20;;;-35.60;99.90;;;;;;5098339;28;20177;-73
2022/09/04 05:35:07;;;;;;;4.33;4.03;;;-36.70;99.90;;;;;;5099190;28;20276;-70
2022/09/04 05:38:06;;;;;;;4.90;4.50;;;-36.40;99.90;;;;;;5083404;28;20564;-74
2022/09/04 05:40:54;;;;;;;4.13;3.83;;;-29.90;99.90;;;;;;5099223;28;20194;-71
2022/09/04 05:43:29;;;;;;;11.07;3.80;;;-33.70;99.90;;;;;;5098788;28;20162;-71
2022/09/04 05:46:18;;;;;;;4.07;3.67;;;-34.60;99.90;;;;;;5099112;28;20175;-70
2022/09/04 05:48:53;;;;;;;5.50;4.43;;;-33.70;99.90;;;;;;5098919;28;20167;-70
2022/09/04 05:51:34;;;;;;;4.40;4.00;;;-36.00;99.90;;;;;;5097762;28;20182;-72
2022/09/04 05:54:08;;;;;;;4.43;4.13;;;-33.60;99.90;;;;;;5097670;28;20174;-70
2022/09/04 05:56:58;;;;;;;4.70;4.23;;;-30.00;99.90;;;;;;5097604;28;20166;-71
2022/09/04 05:59:55;;;;;;;6.73;4.70;;;-30.30;99.90;;;;;;5098642;28;20578;-72
2022/09/04 06:02:48;;;;;;;5.00;4.60;;;-29.30;99.90;;;;;;5098814;28;20175;-70
2022/09/04 06:05:34;;;;;;;4.93;4.63;;;-33.60;99.90;;;;;;5098882;28;20167;-70
2022/09/04 06:08:14;;;;;;;5.60;5.10;;;-36.00;99.90;;;;;;5098662;28;20175;-71
2022/09/04 06:10:49;;;;;;;5.10;4.53;;;-28.00;99.90;;;;;;5098711;28;20208;-72
2022/09/04 06:13:18;;;;;;;5.33;4.90;;;-37.80;99.90;;;;;;5097502;28;20227;-72
2022/09/04 06:15:50;;;;;;;4.87;4.57;;;-32.20;99.90;;;;;;5098510;28;20217;-71
2022/09/04 06:18:40;;;;;;;6.97;5.70;;;-35.80;99.90;;;;;;5098432;28;20179;-71
2022/09/04 06:21:41;;;;;;;7.27;4.83;;;-26.30;99.90;;;;;;5098369;28;20162;-71
2022/09/04 06:24:39;;;;;;;5.40;4.97;;;-28.50;99.90;;;;;;5097376;28;20177;-71
2022/09/04 06:27:23;;;;;;;4.90;4.60;;;-31.90;99.90;;;;;;5097828;28;20159;-71
2022/09/04 06:30:03;;;;;;;4.93;4.63;;;-27.40;99.90;;;;;;5098023;28;20186;-71
2022/09/04 06:33:00;;;;;;;5.23;4.83;;;-25.30;99.90;;;;;;5098329;28;20478;-71
2022/09/04 06:35:48;;;;;;;4.27;3.97;;;-29.60;99.90;;;;;;5097780;28;20684;-71
2022/09/04 06:38:37;;;;;;;5.67;5.10;;;-30.30;99.90;;;;;;5098132;28;20158;-77
2022/09/04 06:41:42;;;;;;;5.30;4.63;;;-21.70;99.90;;;;;;5097836;28;20166;-70
2022/09/04 06:44:28;;;;;;;5.83;5.40;;;-27.90;99.90;;;;;;5097990;28;20166;-74
2022/09/04 06:47:29;;;;;;;6.43;5.87;;;-35.00;99.90;;;;;;5098032;28;20570;-72
2022/09/04 06:50:04;;;;;;;4.33;4.10;;;-26.40;99.90;;;;;;5088995;28;20205;-73
2022/09/04 06:52:54;;;;;;;8.93;5.07;;;-24.30;99.90;;;;;;5097823;28;20167;-72
2022/09/04 06:55:46;;;;;;;4.67;4.27;;;-26.60;99.90;;;;;;5087286;28;20609;-74
2022/09/04 06:59:04;;;;;;;6.13;4.23;;;-21.80;99.90;;;;;;5097632;28;20505;-70
2022/09/04 07:01:59;;;;;;;7.67;4.33;;;-25.40;99.90;;;;;;5075360;28;20264;-72
2022/09/04 07:04:44;;;;;;;4.53;4.13;;;-16.50;99.90;;;;;;5075139;28;20176;-71
2022/09/04 07:07:31;;;;;;;3.97;3.70;;;-26.10;99.90;;;;;;5088073;28;20174;-71
2022/09/04 07:10:06;;;;;;;5.17;4.07;;;-30.20;99.90;;;;;;5097172;28;20193;-74
2022/09/04 07:13:15;;;;;;;5.30;3.57;;;-25.60;99.90;;;;;;5097603;28;20163;-73
2022/09/04 07:16:13;;;;;;;5.00;4.20;;;-26.40;99.90;;;;;;5097134;28;20186;-74
2022/09/04 07:19:02;;;;;;;3.97;3.47;;;-25.40;99.90;;;;;;5097150;28;20594;-75
2022/09/04 07:22:05;;;;;;;3.17;2.90;;;-26.70;99.90;;;;;;5096949;28;20574;-72
2022/09/04 07:24:43;;;;;;;3.80;3.50;;;-23.30;99.90;;;;;;5096811;28;20166;-73
2022/09/04 07:27:35;;;;;;;3.13;2.93;;;-25.30;99.90;;;;;;5097093;28;20254;-75
2022/09/04 07:30:06;;;;;;;4.40;4.10;;;-22.50;99.90;;;;;;5096017;28;20579;-71
2022/09/04 07:32:34;;;;;;;3.57;3.30;;;-27.10;99.90;;;;;;5096770;28;20182;-72
2022/09/04 07:35:03;;;;;;;3.60;3.23;;;-29.90;99.90;;;;;;5095878;28;20247;-71
2022/09/04 07:37:57;;;;;;;2.97;2.67;;;-23.70;99.90;;;;;;5096669;28;20574;-72
2022/09/04 07:40:38;;;;;;;2.77;2.57;;;-25.80;99.90;;;;;;5095628;28;20221;-71
2022/09/04 07:43:31;;;;;;;3.60;3.00;;;-25.60;99.90;;;;;;5096679;28;20169;-72
2022/09/04 07:46:09;;;;;;;4.97;3.43;;;-27.00;99.90;;;;;;5096593;28;20166;-80
2022/09/04 07:49:08;;;;;;;2.70;2.50;;;-30.00;99.90;;;;;;5096665;28;20174;-72
2022/09/04 07:51:44;;;;;;;2.80;2.60;;;-25.10;99.90;;;;;;5096498;28;20193;-74
2022/09/04 07:54:36;;;;;;;2.90;2.67;;;-28.60;99.90;;;;;;5096318;28;20462;-72
2022/09/04 07:57:35;;;;;;;2.70;2.53;;;-28.70;99.90;;;;;;5096556;28;20210;-74
2022/09/04 08:00:03;;;;;;;2.60;2.50;;;-26.80;99.90;;;;;;5096246;28;20244;-75
2022/09/04 08:02:44;;;;;;;3.37;3.17;;;-39.80;99.90;;;;;;5095504;28;20465;-74
2022/09/04 08:05:19;;;;;;;2.67;2.47;;;-32.50;99.90;;;;;;5096350;28;20564;-77
2022/09/04 08:08:22;;;;;;;6.23;2.87;;;-30.90;99.90;;;;;;5096411;28;20500;-71
2022/09/04 08:11:25;;;;;;;5.87;5.27;;;-39.70;99.90;;;;;;5096145;28;20166;-75
2022/09/04 08:14:00;;;;;;;4.17;3.60;;;-38.00;99.90;;;;;;5096124;28;20242;-71
2022/09/04 08:16:51;;;;;;;2.73;2.53;;;-34.70;99.90;;;;;;5095094;28;20170;-76
2022/09/04 08:19:41;;;;;;;3.87;3.07;;;-40.00;99.90;;;;;;5096206;28;20162;-73
2022/09/04 08:22:18;;;;;;;5.30;3.93;;;-40.00;99.90;;;;;;5094876;28;20163;-78
2022/09/04 08:25:07;;;;;;;5.23;3.13;;;-40.00;99.90;;;;;;5096143;28;20247;-74
2022/09/04 08:28:07;;;;;;;3.67;3.30;;;-40.00;99.90;;;;;;5095854;28;20311;-80
2022/09/04 08:31:03;;;;;;;4.87;3.43;;;-40.00;99.90;;;;;;5095952;28;20167;-73
2022/09/04 08:33:43;;;;;;;4.00;3.60;;;-40.00;99.90;;;;;;5093976;28;20179;-71
2022/09/04 08:36:17;;;;;;;5.50;3.53;;;-40.00;99.90;;;;;;5095415;28;20202;-75
2022/09/04 08:38:54;;;;;;;4.17;3.87;;;-40.00;99.30;;;;;;5095950;28;20163;-72
2022/09/04 08:41:56;;;;;;;3.60;3.00;;;-40.00;99.40;;;;;;5095833;28;20169;-73
2022/09/04 08:45:05;;;;;;;6.73;3.93;;;-40.00;99.90;;;;;;5095931;28;20176;-76
2022/09/04 08:47:47;;;;;;;6.90;3.43;;;-40.00;99.10;;;;;;5088574;28;20182;-76
2022/09/04 08:50:38;;;;;;;4.63;3.17;;;-40.00;98.20;;;;;;5095876;28;20266;-80
2022/09/04 08:53:17;;;;;;;3.50;3.20;;;-40.00;98.20;;;;;;5095774;28;20212;-73
2022/09/04 08:56:05;;;;;;;4.23;3.37;;;-40.00;97.30;;;;;;5095873;28;20469;-74
2022/09/04 08:58:59;;;;;;;2.83;2.63;;;-40.00;95.00;;;;;;5095515;28;20175;-77
2022/09/04 09:01:56;;;;;;;3.80;3.33;;;-40.00;94.20;;;;;;5095766;28;20189;-71
2022/09/04 09:04:46;;;;;;;3.23;2.50;;;-40.00;93.30;;;;;;5095841;28;20178;-72
2022/09/04 09:07:33;;;;;;;10.73;2.87;;;-40.00;92.60;;;;;;5095638;28;20600;-74
2022/09/04 09:10:20;;;;;;;2.80;2.60;;;-40.00;92.40;;;;;;5095748;28;20171;-72
2022/09/04 09:13:06;;;;;;;5.57;2.20;;;-40.00;92.20;;;;;;5095700;28;20596;-71
2022/09/04 09:15:56;;;;;;;3.30;3.00;;;-40.00;92.30;;;;;;5095767;28;20274;-78
2022/09/04 09:18:49;;;;;;;2.87;2.63;;;-40.00;91.50;;;;;;5095955;28;20186;-70
2022/09/04 09:21:53;;;;;;;2.97;2.43;;;-40.00;90.90;;;;;;5095322;28;20583;-71
2022/09/04 09:24:43;;;;;;;2.90;2.10;;;-40.00;87.80;;;;;;5095445;28;20227;-71
2022/09/04 09:27:33;;;;;;;4.30;1.87;;;-40.00;86.90;;;;;;5095380;28;20159;-70
2022/09/04 09:30:32;;;;;;;5.27;2.03;;;-40.00;86.20;;;;;;5095581;28;20182;-70
2022/09/04 09:33:31;;;;;;;4.20;2.60;;;-40.00;86.10;;;;;;5094138;28;20489;-71
2022/09/04 09:36:03;;;;;;;5.00;2.37;;;-40.00;86.30;;;;;;5095119;28;20474;-72
2022/09/04 09:38:58;;;;;;;2.10;2.00;;;-40.00;88.10;;;;;;5095353;28;20163;-74
2022/09/04 09:41:55;;;;;;;7.27;6.57;;;-40.00;88.50;;;;;;5095185;28;20612;-74
2022/09/04 09:44:27;;;;;;;4.73;2.20;;;-40.00;86.70;;;;;;5094183;28;20598;-72
2022/09/04 09:47:04;;;;;;;4.37;1.90;;;-40.00;83.20;;;;;;5095308;28;20609;-77
2022/09/04 09:49:53;;;;;;;1.30;1.20;;;-40.00;75.70;;;;;;5095013;28;20178;-73
2022/09/04 09:52:56;;;;;;;3.50;1.40;;;-40.00;72.00;;;;;;5095147;28;20525;-75
2022/09/04 09:55:47;;;;;;;2.53;1.27;;;-40.00;71.50;;;;;;5095142;28;20204;-72
2022/09/04 09:58:18;;;;;;;3.30;2.30;;;-40.00;72.50;;;;;;5097430;28;20181;-72
2022/09/04 10:01:03;;;;;;;3.00;1.63;;;-40.00;69.50;;;;;;5098561;28;20526;-71
2022/09/04 10:03:43;;;;;;;2.63;2.37;;;-40.00;68.80;;;;;;5097112;28;20163;-71
2022/09/04 10:06:12;;;;;;;2.17;1.10;;;-40.00;65.30;;;;;;5098456;28;20171;-70
2022/09/04 10:08:57;;;;;;;3.37;1.40;;;-40.00;63.10;;;;;;5097358;28;20589;-70
2022/09/04 10:12:00;;;;;;;1.63;1.53;;;-40.00;61.00;;;;;;5098661;28;20166;-72
2022/09/04 10:14:54;;;;;;;5.07;1.37;;;-40.00;62.30;;;;;;5098382;28;20206;-71
2022/09/04 10:17:35;;;;;;;11.30;2.03;;;-40.00;59.90;;;;;;5098048;28;20219;-72
2022/09/04 10:20:22;;;;;;;9.07;2.27;;;-40.00;58.60;;;;;;5098123;28;20197;-70
2022/09/04 10:23:20;;;;;;;3.47;1.47;;;-40.00;57.90;;;;;;5097403;28;20186;-71
2022/09/04 10:25:54;;;;;;;3.20;1.60;;;-40.00;58.70;;;;;;5085873;28;20187;-71
2022/09/04 10:28:48;;;;;;;2.67;1.33;;;-40.00;57.90;;;;;;5096767;28;20174;-70
2022/09/04 10:31:43;;;;;;;1.63;1.53;;;-40.00;58.50;;;;;;5098219;28;20518;-74
2022/09/04 10:34:23;;;;;;;0.97;0.70;;;-40.00;58.70;;;;;;5088788;28;20511;-70
2022/09/04 10:37:29;;;;;;;1.30;1.20;;;-40.00;49.70;;;;;;5097815;28;20242;-69
2022/09/04 10:40:34;;;;;;;0.97;0.93;;;-40.00;50.90;;;;;;5097788;28;20155;-69
2022/09/04 10:43:35;;;;;;;3.93;1.13;;;-40.00;50.90;;;;;;5097797;28;20162;-71
2022/09/04 10:46:24;;;;;;;1.30;0.77;;;-40.00;52.50;;;;;;5097770;28;20166;-70
2022/09/04 10:49:29;;;;;;;1.43;1.20;;;-40.00;49.90;;;;;;5097775;28;20178;-70
2022/09/04 10:52:04;;;;;;;1.03;1.00;;;-40.00;50.10;;;;;;5096887;28;20571;-73
2022/09/04 10:54:43;;;;;;;1.70;1.50;;;-40.00;49.10;;;;;;5097417;28;20207;-71
2022/09/04 10:57:28;;;;;;;3.17;1.63;;;-40.00;49.10;;;;;;5097458;28;20171;-72
2022/09/04 11:00:15;;;;;;;2.53;1.10;;;-40.00;50.40;;;;;;5096132;28;20189;-71
2022/09/04 11:02:56;;;;;;;3.43;1.70;;;-40.00;50.30;;;;;;5097471;28;20475;-70
2022/09/04 11:05:33;;;;;;;4.43;1.73;;;-40.00;49.00;;;;;;5096292;28;20171;-71
2022/09/04 11:08:27;;;;;;;1.00;1.00;;;-40.00;50.80;;;;;;5096817;28;20174;-71
2022/09/04 11:11:07;;;;;;;2.50;1.00;;;-40.00;48.40;;;;;;5096937;28;20178;-71
2022/09/04 11:13:47;;;;;;;2.17;1.37;;;-40.00;49.20;;;;;;5097221;28;20166;-70
2022/09/04 11:16:50;;;;;;;3.77;1.67;;;-40.00;50.20;;;;;;5095734;28;20848;-72
2022/09/04 11:19:48;;;;;;;4.37;1.50;;;-40.00;49.00;;;;;;5097258;28;20245;-71
2022/09/04 11:22:44;;;;;;;1.47;1.37;;;-40.00;48.30;;;;;;5084909;28;20597;-70
2022/09/04 11:25:44;;;;;;;1.60;1.13;;;-40.00;48.10;;;;;;5096939;28;20171;-69
2022/09/04 11:28:31;;;;;;;3.13;1.67;;;-40.00;48.10;;;;;;5095901;28;20178;-70
2022/09/04 11:31:09;;;;;;;3.63;1.80;;;-40.00;50.80;;;;;;5096682;28;20477;-70
2022/09/04 11:33:40;;;;;;;2.27;1.20;;;-40.00;49.70;;;;;;5096994;28;20169;-71
2022/09/04 11:36:57;;;;;;;1.37;1.27;;;-40.00;49.80;;;;;;5096747;28;20208;-72
2022/09/04 11:39:24;;;;;;;3.00;1.97;;;-40.00;50.90;;;;;;5096918;28;20186;-70
2022/09/04 11:42:40;;;;;;;1.30;1.10;;;-40.00;48.30;;;;;;5096504;28;20563;-70
2022/09/04 11:45:33;;;;;;;2.93;1.60;;;-40.00;47.00;;;;;;5094483;28;20539;-71
2022/09/04 11:48:49;;;;;;;1.13;1.03;;;-40.00;46.20;;;;;;5096613;28;20227;-73
2022/09/04 11:51:47;;;;;;;2.10;1.57;;;-40.00;45.00;;;;;;5073847;28;20253;-72
2022/09/04 11:54:37;;;;;;;1.97;1.30;;;-40.00;44.50;;;;;;5073875;28;20217;-73
2022/09/04 11:57:31;;;;;;;2.53;1.43;;;-40.00;45.90;;;;;;5092576;28;20578;-72
2022/09/04 12:00:07;;;;;;;3.07;1.33;;;-40.00;44.70;;;;;;5095564;28;20182;-73
2022/09/04 12:02:51;;;;;;;1.50;1.40;;;-40.00;45.60;;;;;;5095982;28;20626;-70
2022/09/04 12:05:38;;;;;;;1.87;1.07;;;-40.00;45.70;;;;;;5096276;28;20245;-78
2022/09/04 12:08:35;;;;;;;1.43;1.33;;;-40.00;45.40;;;;;;5096455;28;20177;-71
2022/09/04 12:11:13;;;;;;;3.93;1.40;;;-40.00;43.80;;;;;;5094924;28;20574;-72
2022/09/04 12:14:08;;;;;;;1.57;1.20;;;-40.00;42.70;;;;;;5095809;28;20167;-71
2022/09/04 12:17:16;;;;;;;3.67;1.20;;;-40.00;42.50;;;;;;5095692;28;20170;-74
2022/09/04 12:20:13;;;;;;;3.33;1.10;;;-40.00;42.70;;;;;;5095622;28;20171;-75
2022/09/04 12:23:18;;;;;;;1.30;1.20;;;-40.00;42.60;;;;;;5095750;28;20198;-72
2022/09/04 12:26:10;;;;;;;5.40;2.10;;;-40.00;43.30;;;;;;5094979;28;20216;-74
2022/09/04 12:29:10;;;;;;;1.33;1.23;;;-40.00;43.30;;;;;;5094586;28;20178;-71
2022/09/04 12:31:41;;;;;;;2.40;1.20;;;-40.00;42.00;;;;;;5095800;28;20181;-74
2022/09/04 12:34:06;;;;;;;1.27;1.17;;;-40.00;41.60;;;;;;5095848;28;20253;-77
2022/09/04 12:37:06;;;;;;;2.43;1.70;;;-40.00;41.80;;;;;;5095664;28;20233;-72
2022/09/04 12:40:00;;;;;;;1.43;1.30;;;-40.00;42.30;;;;;;5095686;28;20171;-74
2022/09/04 12:43:15;;;;;;;2.43;1.37;;;-40.00;40.80;;;;;;5095292;28;20243;-74
2022/09/04 12:46:21;;;;;;;2.57;1.27;;;-40.00;39.10;;;;;;5095627;28;20194;-72
2022/09/04 12:48:59;;;;;;;2.80;2.17;;;-40.00;40.00;;;;;;5095640;28;20174;-70
2022/09/04 12:51:50;;;;;;;1.33;1.23;;;-40.00;41.90;;;;;;5095493;28;20282;-73
2022/09/04 12:54:39;;;;;;;1.47;1.27;;;-40.00;41.90;;;;;;5095616;28;20250;-71
2022/09/04 12:57:23;;;;;;;5.83;1.30;;;-40.00;40.50;;;;;;5084583;28;20175;-73
2022/09/04 12:59:51;;;;;;;1.17;1.17;;;-40.00;40.30;;;;;;5094601;28;20612;-71
2022/09/04 13:02:31;;;;;;;1.30;1.20;;;-40.00;38.70;;;;;;5095399;28;20167;-73
2022/09/04 13:05:30;;;;;;;2.37;1.50;;;30.00;78.70;;;;;;5095437;28;20181;-70
2022/09/04 13:08:27;;;;;;;3.33;1.70;;;-40.00;37.00;;;;;;5094945;28;20170;-70
2022/09/04 13:11:04;;;;;;;1.77;1.50;;;-40.00;36.00;;;;;;5095317;28;20291;-71
2022/09/04 13:14:07;;;;;;;4.20;1.70;;;-40.00;36.10;;;;;;5094713;28;20439;-72
2022/09/04 13:17:04;;;;;;;4.03;1.60;;;-40.00;36.60;;;;;;5095315;28;20170;-70
2022/09/04 13:20:09;;;;;;;2.33;1.58;;;-40.00;38.30;;;;;;5095396;28;20487;-70
2022/09/04 13:23:13;;;;;;;3.60;1.40;;;-40.00;38.60;;;;;;5086853;28;20580;-71
2022/09/04 13:25:47;;;;;;;2.03;1.55;;;-40.00;37.10;;;;;;5095302;28;20194;-73
2022/09/04 13:28:34;;;;;;;5.25;4.03;;;-40.00;37.20;;;;;;5094213;28;20206;-69
2022/09/04 13:31:18;;;;;;;3.28;2.25;;;-40.00;34.70;;;;;;5095395;28;20229;-69
2022/09/04 13:34:00;;;;;;;1.80;1.50;;;-40.00;33.50;;;;;;5098815;28;20167;-70
2022/09/04 13:36:38;;;;;;;2.60;1.50;;;-40.00;33.90;;;;;;5099006;28;20657;-72
2022/09/04 13:39:47;;;;;;;2.60;1.63;;;-40.00;34.50;;;;;;5099087;28;20186;-70
2022/09/04 13:42:19;;;;;;;5.75;1.42;;;-40.00;32.10;;;;;;5098704;28;20619;-72
2022/09/04 13:45:06;;;;;;;2.67;2.47;;;-40.00;32.00;;;;;;5098820;28;20592;-72
2022/09/04 13:47:48;;;;;;;1.25;1.25;;;-40.00;31.80;;;;;;5097858;28;20268;-70
2022/09/04 13:50:37;;;;;;;1.92;1.83;;;-40.00;32.40;;;;;;5097865;28;20198;-71
2022/09/04 13:53:26;;;;;;;1.48;0.90;;;-40.00;31.60;;;;;;5097637;28;20315;-71
2022/09/04 13:56:01;;;;;;;3.88;1.63;;;-40.00;27.70;;;;;;5097216;28;20194;-71
2022/09/04 13:58:45;;;;;;;9.30;1.55;;;-40.00;26.90;;;;;;5097179;28;20481;-72
2022/09/04 14:01:15;;;;;;;4.50;2.17;;;-27.40;29.70;;;;;;5097615;28;20495;-71
2022/09/04 14:04:11;;;;;;;2.08;1.27;;;-25.60;32.60;;;;;;5098363;28;20155;-71
2022/09/04 14:06:37;;;;;;;1.75;1.65;;;-22.20;34.30;;;;;;5089503;28;20186;-70
2022/09/04 14:09:05;;;;;;;1.92;1.67;;;-20.80;33.70;;;;;;5098341;28;20610;-73
2022/09/04 14:12:01;;;;;;;4.60;1.73;;;-23.90;33.10;;;;;;5098069;28;20163;-70
2022/09/04 14:14:58;;;;;;;1.15;1.15;;;-15.80;36.10;;;;;;5098083;28;20251;-71
2022/09/04 14:17:40;;;;;;;3.22;2.05;;;-16.40;36.30;;;;;;5098216;28;20178;-71